sensor_id;sensor_type;location;lat;lon;timestamp;P1;durP1;ratioP1;P2;durP2;ratioP2
2544;SDS011;36212;48.838;9.142;2024-03-22T00:01:18;19.52;;;15.80;;
2544;SDS011;36212;48.838;9.142;2024-03-22T00:03:50;15.88;;;13.95;;
2544;SDS011;36212;48.838;9.142;2024-03-22T00:06:22;15.90;;;14.30;;
2544;SDS011;36212;48.838;9.142;2024-03-22T00:08:53;17.25;;;14.73;;
2544;SDS011;36212;48.838;9.142;2024-03-22T00:11:25;15.43;;;13.82;;
2544;SDS011;36212;48.838;9.142;2024-03-22T00:13:57;16.50;;;14.80;;
2544;SDS011;36212;48.838;9.142;2024-03-22T00:16:29;15.70;;;14.20;;
2544;SDS011;36212;48.838;9.142;2024-03-22T00:19:02;21.13;;;15.52;;
2544;SDS011;36212;48.838;9.142;2024-03-22T00:21:34;17.17;;;15.50;;
2544;SDS011;36212;48.838;9.142;2024-03-22T00:24:06;23.55;;;16.98;;
2544;SDS011;36212;48.838;9.142;2024-03-22T00:26:37;18.85;;;16.85;;
2544;SDS011;36212;48.838;9.142;2024-03-22T00:29:09;15.95;;;14.45;;
2544;SDS011;36212;48.838;9.142;2024-03-22T00:31:40;15.60;;;14.00;;
2544;SDS011;36212;48.838;9.142;2024-03-22T00:34:11;17.88;;;16.08;;
2544;SDS011;36212;48.838;9.142;2024-03-22T00:36:43;19.77;;;17.08;;
2544;SDS011;36212;48.838;9.142;2024-03-22T00:39:15;16.92;;;15.20;;
2544;SDS011;36212;48.838;9.142;2024-03-22T00:41:46;18.85;;;15.60;;
2544;SDS011;36212;48.838;9.142;2024-03-22T00:44:18;18.00;;;15.30;;
2544;SDS011;36212;48.838;9.142;2024-03-22T00:46:49;18.02;;;16.13;;
2544;SDS011;36212;48.838;9.142;2024-03-22T00:49:21;19.30;;;17.40;;
2544;SDS011;36212;48.838;9.142;2024-03-22T00:51:52;16.33;;;14.77;;
2544;SDS011;36212;48.838;9.142;2024-03-22T00:54:26;16.88;;;15.27;;
2544;SDS011;36212;48.838;9.142;2024-03-22T00:56:57;21.10;;;16.35;;
2544;SDS011;36212;48.838;9.142;2024-03-22T00:59:29;17.58;;;15.60;;
2544;SDS011;36212;48.838;9.142;2024-03-22T01:02:00;15.90;;;14.50;;
2544;SDS011;36212;48.838;9.142;2024-03-22T01:04:31;18.95;;;17.10;;
2544;SDS011;36212;48.838;9.142;2024-03-22T01:07:04;16.15;;;14.65;;
2544;SDS011;36212;48.838;9.142;2024-03-22T01:09:35;21.95;;;16.45;;
2544;SDS011;36212;48.838;9.142;2024-03-22T01:12:06;17.92;;;15.95;;
2544;SDS011;36212;48.838;9.142;2024-03-22T01:14:38;16.42;;;14.75;;
2544;SDS011;36212;48.838;9.142;2024-03-22T01:17:09;16.90;;;15.07;;
2544;SDS011;36212;48.838;9.142;2024-03-22T01:19:40;16.52;;;14.82;;
2544;SDS011;36212;48.838;9.142;2024-03-22T01:22:11;17.20;;;14.93;;
2544;SDS011;36212;48.838;9.142;2024-03-22T01:24:43;17.88;;;15.48;;
2544;SDS011;36212;48.838;9.142;2024-03-22T01:27:15;16.38;;;14.65;;
2544;SDS011;36212;48.838;9.142;2024-03-22T01:29:46;17.10;;;15.48;;
2544;SDS011;36212;48.838;9.142;2024-03-22T01:32:17;19.15;;;15.70;;
2544;SDS011;36212;48.838;9.142;2024-03-22T01:34:49;17.35;;;15.55;;
2544;SDS011;36212;48.838;9.142;2024-03-22T01:37:20;16.17;;;14.65;;
2544;SDS011;36212;48.838;9.142;2024-03-22T01:39:51;15.52;;;14.00;;
2544;SDS011;36212;48.838;9.142;2024-03-22T01:42:22;16.88;;;14.80;;
2544;SDS011;36212;48.838;9.142;2024-03-22T01:44:54;20.05;;;14.27;;
2544;SDS011;36212;48.838;9.142;2024-03-22T01:47:25;15.30;;;13.80;;
2544;SDS011;36212;48.838;9.142;2024-03-22T01:49:57;18.33;;;15.27;;
2544;SDS011;36212;48.838;9.142;2024-03-22T01:52:29;16.73;;;15.07;;
2544;SDS011;36212;48.838;9.142;2024-03-22T01:55:00;17.63;;;15.60;;
2544;SDS011;36212;48.838;9.142;2024-03-22T01:57:35;15.55;;;14.05;;
2544;SDS011;36212;48.838;9.142;2024-03-22T02:00:08;16.58;;;14.90;;
2544;SDS011;36212;48.838;9.142;2024-03-22T02:02:44;17.63;;;14.30;;
2544;SDS011;36212;48.838;9.142;2024-03-22T02:05:17;16.25;;;14.43;;
2544;SDS011;36212;48.838;9.142;2024-03-22T02:07:54;20.77;;;16.77;;
2544;SDS011;36212;48.838;9.142;2024-03-22T02:10:25;19.77;;;16.92;;
2544;SDS011;36212;48.838;9.142;2024-03-22T02:12:58;19.27;;;17.30;;
2544;SDS011;36212;48.838;9.142;2024-03-22T02:15:29;22.00;;;17.88;;
2544;SDS011;36212;48.838;9.142;2024-03-22T02:18:01;17.70;;;16.00;;
2544;SDS011;36212;48.838;9.142;2024-03-22T02:20:32;19.65;;;17.55;;
2544;SDS011;36212;48.838;9.142;2024-03-22T02:23:04;22.42;;;16.92;;
2544;SDS011;36212;48.838;9.142;2024-03-22T02:25:35;18.75;;;16.75;;
2544;SDS011;36212;48.838;9.142;2024-03-22T02:28:06;20.10;;;17.15;;
2544;SDS011;36212;48.838;9.142;2024-03-22T02:30:38;19.85;;;16.50;;
2544;SDS011;36212;48.838;9.142;2024-03-22T02:33:09;16.85;;;15.15;;
2544;SDS011;36212;48.838;9.142;2024-03-22T02:35:40;19.20;;;17.20;;
2544;SDS011;36212;48.838;9.142;2024-03-22T02:38:12;18.05;;;16.17;;
2544;SDS011;36212;48.838;9.142;2024-03-22T02:40:43;19.55;;;17.05;;
2544;SDS011;36212;48.838;9.142;2024-03-22T02:43:16;24.85;;;16.83;;
2544;SDS011;36212;48.838;9.142;2024-03-22T02:45:51;20.67;;;18.67;;
2544;SDS011;36212;48.838;9.142;2024-03-22T02:48:23;22.35;;;18.30;;
2544;SDS011;36212;48.838;9.142;2024-03-22T02:50:55;20.17;;;18.00;;
2544;SDS011;36212;48.838;9.142;2024-03-22T02:53:27;19.63;;;17.60;;
2544;SDS011;36212;48.838;9.142;2024-03-22T02:55:59;19.73;;;17.63;;
2544;SDS011;36212;48.838;9.142;2024-03-22T02:58:31;20.77;;;18.45;;
2544;SDS011;36212;48.838;9.142;2024-03-22T03:01:05;20.50;;;18.45;;
2544;SDS011;36212;48.838;9.142;2024-03-22T03:03:36;20.08;;;18.08;;
2544;SDS011;36212;48.838;9.142;2024-03-22T03:06:07;23.02;;;18.73;;
2544;SDS011;36212;48.838;9.142;2024-03-22T03:08:39;20.90;;;18.80;;
2544;SDS011;36212;48.838;9.142;2024-03-22T03:11:11;20.48;;;17.80;;
2544;SDS011;36212;48.838;9.142;2024-03-22T03:13:44;24.75;;;18.00;;
2544;SDS011;36212;48.838;9.142;2024-03-22T03:16:15;19.20;;;17.15;;
2544;SDS011;36212;48.838;9.142;2024-03-22T03:18:47;19.85;;;17.92;;
2544;SDS011;36212;48.838;9.142;2024-03-22T03:21:18;19.27;;;17.27;;
2544;SDS011;36212;48.838;9.142;2024-03-22T03:23:50;19.63;;;17.58;;
2544;SDS011;36212;48.838;9.142;2024-03-22T03:26:22;18.02;;;16.23;;
2544;SDS011;36212;48.838;9.142;2024-03-22T03:28:53;18.88;;;16.90;;
2544;SDS011;36212;48.838;9.142;2024-03-22T03:31:26;18.85;;;16.85;;
2544;SDS011;36212;48.838;9.142;2024-03-22T03:33:57;19.35;;;17.33;;
2544;SDS011;36212;48.838;9.142;2024-03-22T03:36:29;21.15;;;18.02;;
2544;SDS011;36212;48.838;9.142;2024-03-22T03:39:00;22.83;;;18.45;;
2544;SDS011;36212;48.838;9.142;2024-03-22T03:41:32;19.58;;;17.20;;
2544;SDS011;36212;48.838;9.142;2024-03-22T03:44:04;21.35;;;17.88;;
2544;SDS011;36212;48.838;9.142;2024-03-22T03:46:35;17.95;;;16.20;;
2544;SDS011;36212;48.838;9.142;2024-03-22T03:49:06;18.50;;;16.65;;
2544;SDS011;36212;48.838;9.142;2024-03-22T03:51:37;18.67;;;16.95;;
2544;SDS011;36212;48.838;9.142;2024-03-22T03:54:09;18.45;;;16.42;;
2544;SDS011;36212;48.838;9.142;2024-03-22T03:56:40;18.08;;;16.25;;
2544;SDS011;36212;48.838;9.142;2024-03-22T03:59:11;19.00;;;16.00;;
2544;SDS011;36212;48.838;9.142;2024-03-22T04:01:42;17.88;;;16.13;;
2544;SDS011;36212;48.838;9.142;2024-03-22T04:04:14;18.60;;;15.90;;
2544;SDS011;36212;48.838;9.142;2024-03-22T04:06:45;17.17;;;15.48;;
2544;SDS011;36212;48.838;9.142;2024-03-22T04:09:16;17.02;;;15.25;;
2544;SDS011;36212;48.838;9.142;2024-03-22T04:11:48;17.70;;;15.85;;
2544;SDS011;36212;48.838;9.142;2024-03-22T04:14:19;16.80;;;15.05;;
2544;SDS011;36212;48.838;9.142;2024-03-22T04:16:50;16.70;;;14.98;;
2544;SDS011;36212;48.838;9.142;2024-03-22T04:19:24;18.55;;;16.55;;
2544;SDS011;36212;48.838;9.142;2024-03-22T04:21:55;17.13;;;15.48;;
2544;SDS011;36212;48.838;9.142;2024-03-22T04:24:27;16.40;;;14.70;;
2544;SDS011;36212;48.838;9.142;2024-03-22T04:26:59;16.13;;;14.63;;
2544;SDS011;36212;48.838;9.142;2024-03-22T04:29:30;16.98;;;15.32;;
2544;SDS011;36212;48.838;9.142;2024-03-22T04:32:02;19.35;;;16.80;;
2544;SDS011;36212;48.838;9.142;2024-03-22T04:34:33;18.15;;;16.13;;
2544;SDS011;36212;48.838;9.142;2024-03-22T04:37:04;17.20;;;15.32;;
2544;SDS011;36212;48.838;9.142;2024-03-22T04:39:37;17.55;;;15.23;;
2544;SDS011;36212;48.838;9.142;2024-03-22T04:42:10;18.05;;;16.27;;
2544;SDS011;36212;48.838;9.142;2024-03-22T04:44:42;16.85;;;14.95;;
2544;SDS011;36212;48.838;9.142;2024-03-22T04:47:13;23.67;;;16.70;;
2544;SDS011;36212;48.838;9.142;2024-03-22T04:49:45;20.10;;;16.23;;
2544;SDS011;36212;48.838;9.142;2024-03-22T04:52:16;18.52;;;16.73;;
2544;SDS011;36212;48.838;9.142;2024-03-22T04:54:47;20.70;;;17.08;;
2544;SDS011;36212;48.838;9.142;2024-03-22T04:57:19;17.90;;;16.15;;
2544;SDS011;36212;48.838;9.142;2024-03-22T04:59:50;16.00;;;14.25;;
2544;SDS011;36212;48.838;9.142;2024-03-22T05:02:22;17.67;;;15.27;;
2544;SDS011;36212;48.838;9.142;2024-03-22T05:04:54;16.67;;;15.07;;
2544;SDS011;36212;48.838;9.142;2024-03-22T05:07:25;16.50;;;14.80;;
2544;SDS011;36212;48.838;9.142;2024-03-22T05:09:56;14.75;;;13.35;;
2544;SDS011;36212;48.838;9.142;2024-03-22T05:12:28;16.70;;;15.15;;
2544;SDS011;36212;48.838;9.142;2024-03-22T05:15:00;14.73;;;13.23;;
2544;SDS011;36212;48.838;9.142;2024-03-22T05:17:33;18.25;;;14.85;;
2544;SDS011;36212;48.838;9.142;2024-03-22T05:20:05;16.67;;;14.95;;
2544;SDS011;36212;48.838;9.142;2024-03-22T05:22:41;16.15;;;14.55;;
2544;SDS011;36212;48.838;9.142;2024-03-22T05:25:13;18.75;;;14.57;;
2544;SDS011;36212;48.838;9.142;2024-03-22T05:27:45;15.23;;;13.38;;
2544;SDS011;36212;48.838;9.142;2024-03-22T05:30:17;14.57;;;13.10;;
2544;SDS011;36212;48.838;9.142;2024-03-22T05:32:48;16.55;;;14.90;;
2544;SDS011;36212;48.838;9.142;2024-03-22T05:35:20;17.40;;;15.60;;
2544;SDS011;36212;48.838;9.142;2024-03-22T05:37:52;21.90;;;17.35;;
2544;SDS011;36212;48.838;9.142;2024-03-22T05:40:23;16.48;;;14.60;;
2544;SDS011;36212;48.838;9.142;2024-03-22T05:42:54;16.25;;;14.65;;
2544;SDS011;36212;48.838;9.142;2024-03-22T05:45:26;16.90;;;14.68;;
2544;SDS011;36212;48.838;9.142;2024-03-22T05:47:57;16.20;;;14.48;;
2544;SDS011;36212;48.838;9.142;2024-03-22T05:50:29;16.70;;;14.52;;
2544;SDS011;36212;48.838;9.142;2024-03-22T05:53:00;17.83;;;14.82;;
2544;SDS011;36212;48.838;9.142;2024-03-22T05:55:36;15.80;;;13.98;;
2544;SDS011;36212;48.838;9.142;2024-03-22T05:58:10;16.50;;;14.90;;
2544;SDS011;36212;48.838;9.142;2024-03-22T06:00:41;18.52;;;14.55;;
2544;SDS011;36212;48.838;9.142;2024-03-22T06:03:13;15.65;;;14.05;;
2544;SDS011;36212;48.838;9.142;2024-03-22T06:05:45;16.33;;;14.60;;
2544;SDS011;36212;48.838;9.142;2024-03-22T06:08:17;19.58;;;16.33;;
2544;SDS011;36212;48.838;9.142;2024-03-22T06:10:54;15.80;;;14.40;;
2544;SDS011;36212;48.838;9.142;2024-03-22T06:13:29;16.20;;;13.68;;
2544;SDS011;36212;48.838;9.142;2024-03-22T06:16:03;15.13;;;13.63;;
2544;SDS011;36212;48.838;9.142;2024-03-22T06:18:36;17.38;;;13.05;;
2544;SDS011;36212;48.838;9.142;2024-03-22T06:21:07;14.68;;;13.25;;
2544;SDS011;36212;48.838;9.142;2024-03-22T06:23:39;16.63;;;13.25;;
2544;SDS011;36212;48.838;9.142;2024-03-22T06:26:10;16.52;;;14.93;;
2544;SDS011;36212;48.838;9.142;2024-03-22T06:28:42;15.05;;;13.45;;
2544;SDS011;36212;48.838;9.142;2024-03-22T06:31:13;16.08;;;14.32;;
2544;SDS011;36212;48.838;9.142;2024-03-22T06:33:44;14.95;;;13.63;;
2544;SDS011;36212;48.838;9.142;2024-03-22T06:36:16;15.52;;;14.05;;
2544;SDS011;36212;48.838;9.142;2024-03-22T06:38:49;15.07;;;13.60;;
2544;SDS011;36212;48.838;9.142;2024-03-22T06:41:20;15.52;;;13.40;;
2544;SDS011;36212;48.838;9.142;2024-03-22T06:43:52;14.13;;;12.68;;
2544;SDS011;36212;48.838;9.142;2024-03-22T06:46:23;14.40;;;12.90;;
2544;SDS011;36212;48.838;9.142;2024-03-22T06:48:55;14.27;;;12.98;;
2544;SDS011;36212;48.838;9.142;2024-03-22T06:51:27;13.85;;;12.23;;
2544;SDS011;36212;48.838;9.142;2024-03-22T06:53:59;15.57;;;14.02;;
2544;SDS011;36212;48.838;9.142;2024-03-22T06:56:30;13.20;;;12.15;;
2544;SDS011;36212;48.838;9.142;2024-03-22T06:59:02;15.48;;;13.90;;
2544;SDS011;36212;48.838;9.142;2024-03-22T07:01:33;13.55;;;12.25;;
2544;SDS011;36212;48.838;9.142;2024-03-22T07:04:04;13.40;;;12.18;;
2544;SDS011;36212;48.838;9.142;2024-03-22T07:06:36;14.52;;;13.15;;
2544;SDS011;36212;48.838;9.142;2024-03-22T07:09:07;15.05;;;13.65;;
2544;SDS011;36212;48.838;9.142;2024-03-22T07:11:39;15.98;;;14.35;;
2544;SDS011;36212;48.838;9.142;2024-03-22T07:14:11;14.63;;;13.20;;
2544;SDS011;36212;48.838;9.142;2024-03-22T07:16:43;15.40;;;13.25;;
2544;SDS011;36212;48.838;9.142;2024-03-22T07:19:14;15.10;;;13.38;;
2544;SDS011;36212;48.838;9.142;2024-03-22T07:21:46;13.82;;;11.52;;
2544;SDS011;36212;48.838;9.142;2024-03-22T07:24:18;13.35;;;12.15;;
2544;SDS011;36212;48.838;9.142;2024-03-22T07:26:49;13.07;;;11.77;;
2544;SDS011;36212;48.838;9.142;2024-03-22T07:29:21;13.05;;;11.77;;
2544;SDS011;36212;48.838;9.142;2024-03-22T07:31:52;13.40;;;12.20;;
2544;SDS011;36212;48.838;9.142;2024-03-22T07:34:23;12.40;;;11.30;;
2544;SDS011;36212;48.838;9.142;2024-03-22T07:36:54;12.17;;;11.27;;
2544;SDS011;36212;48.838;9.142;2024-03-22T07:39:29;12.37;;;11.33;;
2544;SDS011;36212;48.838;9.142;2024-03-22T07:42:00;13.27;;;11.87;;
2544;SDS011;36212;48.838;9.142;2024-03-22T07:44:33;11.10;;;10.10;;
2544;SDS011;36212;48.838;9.142;2024-03-22T07:47:05;13.43;;;11.60;;
2544;SDS011;36212;48.838;9.142;2024-03-22T07:49:37;14.30;;;10.00;;
2544;SDS011;36212;48.838;9.142;2024-03-22T07:52:09;10.37;;;9.70;;
2544;SDS011;36212;48.838;9.142;2024-03-22T07:54:40;10.40;;;9.33;;
2544;SDS011;36212;48.838;9.142;2024-03-22T07:57:11;10.63;;;9.67;;
2544;SDS011;36212;48.838;9.142;2024-03-22T07:59:43;11.90;;;10.70;;
2544;SDS011;36212;48.838;9.142;2024-03-22T08:02:15;11.80;;;10.60;;
2544;SDS011;36212;48.838;9.142;2024-03-22T08:04:47;12.83;;;11.50;;
2544;SDS011;36212;48.838;9.142;2024-03-22T08:07:19;18.27;;;11.50;;
2544;SDS011;36212;48.838;9.142;2024-03-22T08:09:51;12.50;;;11.33;;
2544;SDS011;36212;48.838;9.142;2024-03-22T08:12:22;12.13;;;10.97;;
2544;SDS011;36212;48.838;9.142;2024-03-22T08:14:55;10.23;;;9.53;;
2544;SDS011;36212;48.838;9.142;2024-03-22T08:17:26;10.80;;;9.77;;
2544;SDS011;36212;48.838;9.142;2024-03-22T08:19:58;11.00;;;9.87;;
2544;SDS011;36212;48.838;9.142;2024-03-22T08:22:29;11.30;;;8.93;;
2544;SDS011;36212;48.838;9.142;2024-03-22T08:25:01;10.40;;;9.50;;
2544;SDS011;36212;48.838;9.142;2024-03-22T08:27:35;8.90;;;8.20;;
2544;SDS011;36212;48.838;9.142;2024-03-22T08:30:07;8.77;;;8.07;;
2544;SDS011;36212;48.838;9.142;2024-03-22T08:32:40;8.70;;;8.10;;
2544;SDS011;36212;48.838;9.142;2024-03-22T08:35:12;7.93;;;7.40;;
2544;SDS011;36212;48.838;9.142;2024-03-22T08:37:44;8.57;;;7.87;;
2544;SDS011;36212;48.838;9.142;2024-03-22T08:40:15;10.40;;;8.47;;
2544;SDS011;36212;48.838;9.142;2024-03-22T08:42:47;8.67;;;7.37;;
2544;SDS011;36212;48.838;9.142;2024-03-22T08:45:18;10.37;;;8.07;;
2544;SDS011;36212;48.838;9.142;2024-03-22T08:47:50;8.40;;;7.60;;
2544;SDS011;36212;48.838;9.142;2024-03-22T08:50:21;7.93;;;7.23;;
2544;SDS011;36212;48.838;9.142;2024-03-22T08:52:54;7.93;;;7.33;;
2544;SDS011;36212;48.838;9.142;2024-03-22T08:55:26;7.90;;;7.20;;
2544;SDS011;36212;48.838;9.142;2024-03-22T08:57:57;8.00;;;7.23;;
2544;SDS011;36212;48.838;9.142;2024-03-22T09:00:29;8.53;;;7.77;;
2544;SDS011;36212;48.838;9.142;2024-03-22T09:03:03;7.97;;;7.27;;
2544;SDS011;36212;48.838;9.142;2024-03-22T09:05:38;8.87;;;7.97;;
2544;SDS011;36212;48.838;9.142;2024-03-22T09:08:10;8.93;;;8.13;;
2544;SDS011;36212;48.838;9.142;2024-03-22T09:10:41;7.90;;;7.40;;
2544;SDS011;36212;48.838;9.142;2024-03-22T09:13:12;7.43;;;6.93;;
2544;SDS011;36212;48.838;9.142;2024-03-22T09:15:44;7.67;;;6.97;;
2544;SDS011;36212;48.838;9.142;2024-03-22T09:18:15;7.30;;;6.70;;
2544;SDS011;36212;48.838;9.142;2024-03-22T09:20:47;7.75;;;7.03;;
2544;SDS011;36212;48.838;9.142;2024-03-22T09:23:19;7.60;;;7.03;;
2544;SDS011;36212;48.838;9.142;2024-03-22T09:25:50;7.25;;;6.57;;
2544;SDS011;36212;48.838;9.142;2024-03-22T09:28:22;7.17;;;6.50;;
2544;SDS011;36212;48.838;9.142;2024-03-22T09:30:53;7.43;;;6.82;;
2544;SDS011;36212;48.838;9.142;2024-03-22T09:33:25;6.83;;;6.33;;
2544;SDS011;36212;48.838;9.142;2024-03-22T09:35:56;7.80;;;7.20;;
2544;SDS011;36212;48.838;9.142;2024-03-22T09:38:28;7.65;;;6.90;;
2544;SDS011;36212;48.838;9.142;2024-03-22T09:41:00;6.93;;;6.43;;
2544;SDS011;36212;48.838;9.142;2024-03-22T09:43:32;8.13;;;7.05;;
2544;SDS011;36212;48.838;9.142;2024-03-22T09:46:05;7.83;;;7.23;;
2544;SDS011;36212;48.838;9.142;2024-03-22T09:48:40;7.37;;;6.73;;
2544;SDS011;36212;48.838;9.142;2024-03-22T09:51:14;7.17;;;6.47;;
2544;SDS011;36212;48.838;9.142;2024-03-22T09:53:48;7.60;;;6.73;;
2544;SDS011;36212;48.838;9.142;2024-03-22T09:56:22;6.93;;;6.43;;
2544;SDS011;36212;48.838;9.142;2024-03-22T09:58:56;7.90;;;7.30;;
2544;SDS011;36212;48.838;9.142;2024-03-22T10:01:31;10.00;;;7.57;;
2544;SDS011;36212;48.838;9.142;2024-03-22T10:04:04;8.07;;;7.40;;
2544;SDS011;36212;48.838;9.142;2024-03-22T10:06:36;9.10;;;6.60;;
2544;SDS011;36212;48.838;9.142;2024-03-22T10:09:08;7.77;;;7.10;;
2544;SDS011;36212;48.838;9.142;2024-03-22T10:11:40;8.40;;;7.00;;
2544;SDS011;36212;48.838;9.142;2024-03-22T10:14:12;6.90;;;6.40;;
2544;SDS011;36212;48.838;9.142;2024-03-22T10:16:43;9.30;;;7.70;;
2544;SDS011;36212;48.838;9.142;2024-03-22T10:19:15;7.80;;;7.20;;
2544;SDS011;36212;48.838;9.142;2024-03-22T10:24:51;7.50;;;6.90;;
2544;SDS011;36212;48.838;9.142;2024-03-22T10:27:23;7.13;;;6.63;;
2544;SDS011;36212;48.838;9.142;2024-03-22T10:29:56;8.00;;;7.30;;
2544;SDS011;36212;48.838;9.142;2024-03-22T10:32:29;7.90;;;7.20;;
2544;SDS011;36212;48.838;9.142;2024-03-22T10:35:01;8.23;;;7.60;;
2544;SDS011;36212;48.838;9.142;2024-03-22T10:37:37;7.87;;;7.27;;
2544;SDS011;36212;48.838;9.142;2024-03-22T10:40:10;7.40;;;6.80;;
2544;SDS011;36212;48.838;9.142;2024-03-22T10:42:42;9.00;;;7.70;;
2544;SDS011;36212;48.838;9.142;2024-03-22T10:45:16;9.77;;;8.87;;
2544;SDS011;36212;48.838;9.142;2024-03-22T10:47:52;9.47;;;8.27;;
2544;SDS011;36212;48.838;9.142;2024-03-22T10:50:26;9.57;;;7.53;;
2544;SDS011;36212;48.838;9.142;2024-03-22T10:53:01;6.67;;;6.17;;
2544;SDS011;36212;48.838;9.142;2024-03-22T10:55:45;7.93;;;7.33;;
2544;SDS011;36212;48.838;9.142;2024-03-22T10:58:22;7.00;;;6.33;;
2544;SDS011;36212;48.838;9.142;2024-03-22T11:00:55;6.33;;;5.90;;
2544;SDS011;36212;48.838;9.142;2024-03-22T11:03:27;6.73;;;6.13;;
2544;SDS011;36212;48.838;9.142;2024-03-22T11:06:07;7.47;;;6.67;;
2544;SDS011;36212;48.838;9.142;2024-03-22T11:08:38;6.90;;;6.40;;
2544;SDS011;36212;48.838;9.142;2024-03-22T11:11:11;6.70;;;6.10;;
2544;SDS011;36212;48.838;9.142;2024-03-22T11:13:43;6.70;;;6.10;;
2544;SDS011;36212;48.838;9.142;2024-03-22T11:16:17;6.93;;;6.33;;
2544;SDS011;36212;48.838;9.142;2024-03-22T11:18:49;5.00;;;4.70;;
2544;SDS011;36212;48.838;9.142;2024-03-22T11:21:21;5.90;;;5.40;;
2544;SDS011;36212;48.838;9.142;2024-03-22T11:23:53;5.80;;;5.00;;
2544;SDS011;36212;48.838;9.142;2024-03-22T11:26:25;6.20;;;5.70;;
2544;SDS011;36212;48.838;9.142;2024-03-22T11:28:57;5.63;;;5.10;;
2544;SDS011;36212;48.838;9.142;2024-03-22T11:31:29;6.60;;;5.97;;
2544;SDS011;36212;48.838;9.142;2024-03-22T11:34:00;5.47;;;5.17;;
2544;SDS011;36212;48.838;9.142;2024-03-22T11:36:35;6.23;;;5.60;;
2544;SDS011;36212;48.838;9.142;2024-03-22T11:39:06;5.77;;;5.37;;
2544;SDS011;36212;48.838;9.142;2024-03-22T11:41:39;5.80;;;5.40;;
2544;SDS011;36212;48.838;9.142;2024-03-22T11:44:10;5.23;;;4.83;;
2544;SDS011;36212;48.838;9.142;2024-03-22T11:46:43;7.50;;;4.97;;
2544;SDS011;36212;48.838;9.142;2024-03-22T11:49:15;5.30;;;4.80;;
2544;SDS011;36212;48.838;9.142;2024-03-22T11:51:48;5.13;;;4.83;;
2544;SDS011;36212;48.838;9.142;2024-03-22T11:54:22;5.80;;;5.00;;
2544;SDS011;36212;48.838;9.142;2024-03-22T11:56:56;5.70;;;5.20;;
2544;SDS011;36212;48.838;9.142;2024-03-22T11:59:29;5.10;;;4.70;;
2544;SDS011;36212;48.838;9.142;2024-03-22T12:02:00;6.13;;;5.40;;
2544;SDS011;36212;48.838;9.142;2024-03-22T12:04:34;5.10;;;4.80;;
2544;SDS011;36212;48.838;9.142;2024-03-22T12:07:08;5.33;;;4.93;;
2544;SDS011;36212;48.838;9.142;2024-03-22T12:09:44;5.80;;;5.30;;
2544;SDS011;36212;48.838;9.142;2024-03-22T12:12:16;5.83;;;5.27;;
2544;SDS011;36212;48.838;9.142;2024-03-22T12:14:47;5.77;;;5.27;;
2544;SDS011;36212;48.838;9.142;2024-03-22T12:17:21;5.83;;;5.53;;
2544;SDS011;36212;48.838;9.142;2024-03-22T12:19:52;5.30;;;5.00;;
2544;SDS011;36212;48.838;9.142;2024-03-22T12:22:23;4.80;;;4.50;;
2544;SDS011;36212;48.838;9.142;2024-03-22T12:24:56;5.80;;;5.30;;
2544;SDS011;36212;48.838;9.142;2024-03-22T12:27:29;5.57;;;5.27;;
2544;SDS011;36212;48.838;9.142;2024-03-22T12:30:01;4.83;;;4.53;;
2544;SDS011;36212;48.838;9.142;2024-03-22T12:32:33;5.90;;;5.50;;
2544;SDS011;36212;48.838;9.142;2024-03-22T12:35:05;6.20;;;5.67;;
2544;SDS011;36212;48.838;9.142;2024-03-22T12:37:38;6.43;;;5.90;;
2544;SDS011;36212;48.838;9.142;2024-03-22T12:40:10;6.20;;;5.70;;
2544;SDS011;36212;48.838;9.142;2024-03-22T12:42:44;6.00;;;5.60;;
2544;SDS011;36212;48.838;9.142;2024-03-22T12:45:19;5.90;;;5.50;;
2544;SDS011;36212;48.838;9.142;2024-03-22T12:47:54;5.67;;;5.30;;
2544;SDS011;36212;48.838;9.142;2024-03-22T12:50:27;5.70;;;5.03;;
2544;SDS011;36212;48.838;9.142;2024-03-22T12:52:59;6.10;;;5.60;;
2544;SDS011;36212;48.838;9.142;2024-03-22T12:55:30;5.97;;;5.47;;
2544;SDS011;36212;48.838;9.142;2024-03-22T12:58:05;10.47;;;5.03;;
2544;SDS011;36212;48.838;9.142;2024-03-22T13:00:38;5.60;;;5.10;;
2544;SDS011;36212;48.838;9.142;2024-03-22T13:03:10;4.83;;;4.43;;
2544;SDS011;36212;48.838;9.142;2024-03-22T13:05:47;5.73;;;5.13;;
2544;SDS011;36212;48.838;9.142;2024-03-22T13:08:20;5.50;;;5.03;;
2544;SDS011;36212;48.838;9.142;2024-03-22T13:10:53;5.63;;;5.00;;
2544;SDS011;36212;48.838;9.142;2024-03-22T13:13:27;6.10;;;5.60;;
2544;SDS011;36212;48.838;9.142;2024-03-22T13:16:00;4.90;;;4.50;;
2544;SDS011;36212;48.838;9.142;2024-03-22T13:18:34;5.80;;;5.20;;
2544;SDS011;36212;48.838;9.142;2024-03-22T13:21:07;5.13;;;4.83;;
2544;SDS011;36212;48.838;9.142;2024-03-22T13:23:38;5.20;;;4.90;;
2544;SDS011;36212;48.838;9.142;2024-03-22T13:26:12;5.30;;;4.90;;
2544;SDS011;36212;48.838;9.142;2024-03-22T13:28:44;4.50;;;4.30;;
2544;SDS011;36212;48.838;9.142;2024-03-22T13:31:17;5.80;;;5.33;;
2544;SDS011;36212;48.838;9.142;2024-03-22T13:33:51;5.63;;;5.17;;
2544;SDS011;36212;48.838;9.142;2024-03-22T13:36:23;5.87;;;5.43;;
2544;SDS011;36212;48.838;9.142;2024-03-22T13:38:56;5.43;;;5.10;;
2544;SDS011;36212;48.838;9.142;2024-03-22T13:41:28;6.00;;;5.60;;
2544;SDS011;36212;48.838;9.142;2024-03-22T13:44:00;5.33;;;5.03;;
2544;SDS011;36212;48.838;9.142;2024-03-22T13:46:36;5.90;;;5.10;;
2544;SDS011;36212;48.838;9.142;2024-03-22T13:49:13;5.80;;;5.50;;
2544;SDS011;36212;48.838;9.142;2024-03-22T13:51:49;6.23;;;5.93;;
2544;SDS011;36212;48.838;9.142;2024-03-22T13:54:21;7.80;;;7.20;;
2544;SDS011;36212;48.838;9.142;2024-03-22T13:56:53;6.47;;;6.17;;
2544;SDS011;36212;48.838;9.142;2024-03-22T13:59:24;9.57;;;7.00;;
2544;SDS011;36212;48.838;9.142;2024-03-22T14:01:57;7.20;;;6.60;;
2544;SDS011;36212;48.838;9.142;2024-03-22T14:04:29;6.20;;;5.77;;
2544;SDS011;36212;48.838;9.142;2024-03-22T14:07:02;8.40;;;5.70;;
2544;SDS011;36212;48.838;9.142;2024-03-22T14:09:36;6.37;;;5.83;;
2544;SDS011;36212;48.838;9.142;2024-03-22T14:12:11;5.27;;;4.83;;
2544;SDS011;36212;48.838;9.142;2024-03-22T14:14:42;5.13;;;4.83;;
2544;SDS011;36212;48.838;9.142;2024-03-22T14:17:14;6.03;;;4.33;;
2544;SDS011;36212;48.838;9.142;2024-03-22T14:19:46;4.53;;;4.13;;
2544;SDS011;36212;48.838;9.142;2024-03-22T14:22:18;4.40;;;4.10;;
2544;SDS011;36212;48.838;9.142;2024-03-22T14:24:50;4.07;;;3.87;;
2544;SDS011;36212;48.838;9.142;2024-03-22T14:27:22;4.53;;;4.13;;
2544;SDS011;36212;48.838;9.142;2024-03-22T14:29:53;5.40;;;3.83;;
2544;SDS011;36212;48.838;9.142;2024-03-22T14:32:24;3.80;;;3.60;;
2544;SDS011;36212;48.838;9.142;2024-03-22T14:34:57;4.83;;;4.10;;
2544;SDS011;36212;48.838;9.142;2024-03-22T14:37:29;4.50;;;4.10;;
2544;SDS011;36212;48.838;9.142;2024-03-22T14:40:02;4.37;;;4.07;;
2544;SDS011;36212;48.838;9.142;2024-03-22T14:42:40;4.60;;;4.40;;
2544;SDS011;36212;48.838;9.142;2024-03-22T14:45:13;4.30;;;4.03;;
2544;SDS011;36212;48.838;9.142;2024-03-22T14:47:51;5.20;;;4.87;;
2544;SDS011;36212;48.838;9.142;2024-03-22T14:50:22;4.33;;;4.13;;
2544;SDS011;36212;48.838;9.142;2024-03-22T14:52:55;4.53;;;4.20;;
2544;SDS011;36212;48.838;9.142;2024-03-22T14:55:26;5.30;;;4.10;;
2544;SDS011;36212;48.838;9.142;2024-03-22T14:57:57;4.73;;;4.10;;
2544;SDS011;36212;48.838;9.142;2024-03-22T15:00:29;4.73;;;4.40;;
2544;SDS011;36212;48.838;9.142;2024-03-22T15:03:00;5.00;;;4.60;;
2544;SDS011;36212;48.838;9.142;2024-03-22T15:05:32;5.50;;;5.10;;
2544;SDS011;36212;48.838;9.142;2024-03-22T15:08:06;4.50;;;4.20;;
2544;SDS011;36212;48.838;9.142;2024-03-22T15:10:37;5.33;;;4.87;;
2544;SDS011;36212;48.838;9.142;2024-03-22T15:13:14;4.67;;;4.47;;
2544;SDS011;36212;48.838;9.142;2024-03-22T15:15:57;4.80;;;4.50;;
2544;SDS011;36212;48.838;9.142;2024-03-22T15:18:30;5.60;;;5.07;;